Time;durP1;ratioP1;P1;durP2;ratioP2;P2;SDS_P1;SDS_P2;PMS_P1;PMS_P2;Temp;Humidity;BMP_temperature;BMP_pressure;BME280_temperature;BME280_humidity;BME280_pressure;Samples;Min_cycle;Max_cycle;Signal;HPM_P1;HPM_P2
2024/03/25 00:04:55;;;;;;;5.20;2.95;;;5.10;99.90;;;;;;12530020;28;20049;-89
2024/03/25 00:10:56;;;;;;;9.55;4.28;;;5.10;99.90;;;;;;12515874;28;20114;-89
2024/03/25 00:16:57;;;;;;;6.80;3.95;;;5.00;99.90;;;;;;12524104;28;20045;-87
2024/03/25 00:22:58;;;;;;;6.55;4.75;;;5.10;99.90;;;;;;12510315;28;20496;-90
2024/03/25 00:28:59;;;;;;;8.65;6.60;;;5.10;99.90;;;;;;12525549;28;20057;-87
2024/03/25 00:35:01;;;;;;;10.30;7.55;;;5.10;99.90;;;;;;12507561;28;20443;-87
2024/03/25 00:41:02;;;;;;;11.77;9.05;;;5.00;99.90;;;;;;12499039;28;20057;-86
2024/03/25 00:47:03;;;;;;;13.88;8.15;;;5.00;99.90;;;;;;12519905;28;20118;-85
2024/03/25 00:53:04;;;;;;;12.20;10.73;;;5.00;99.90;;;;;;12507521;28;20049;-85
2024/03/25 00:59:06;;;;;;;12.73;7.93;;;5.00;99.90;;;;;;12516163;28;20065;-88
2024/03/25 01:05:07;;;;;;;7.82;7.03;;;5.10;99.90;;;;;;12498531;28;20049;-86
2024/03/25 01:11:08;;;;;;;12.18;8.20;;;5.00;99.90;;;;;;12507050;28;20508;-86
2024/03/25 01:17:09;;;;;;;14.02;7.85;;;5.10;99.90;;;;;;12502062;28;20067;-86
2024/03/25 01:23:10;;;;;;;15.13;7.70;;;5.10;99.90;;;;;;12500157;28;20083;-81
2024/03/25 01:29:11;;;;;;;10.27;5.13;;;5.10;99.90;;;;;;12484858;28;20046;-79
2024/03/25 01:35:12;;;;;;;5.95;4.93;;;5.20;99.90;;;;;;12498147;28;20049;-78
2024/03/25 01:41:16;;;;;;;8.27;5.90;;;5.30;99.90;;;;;;12514753;28;20084;-80
2024/03/25 01:47:17;;;;;;;;;;;5.20;99.90;;;;;;12519841;28;20057;-79
2024/03/25 01:53:19;;;;;;;16.17;6.20;;;5.20;99.90;;;;;;12518447;28;19928;-79
2024/03/25 01:59:20;;;;;;;8.63;6.63;;;5.20;99.90;;;;;;12501056;28;20424;-78
2024/03/25 02:05:21;;;;;;;10.55;8.13;;;5.20;99.90;;;;;;12500536;28;20089;-83
2024/03/25 02:11:23;;;;;;;13.98;7.00;;;5.20;99.90;;;;;;12514345;28;20049;-79
2024/03/25 02:17:24;;;;;;;13.88;6.97;;;5.20;99.90;;;;;;12530569;28;20057;-79
2024/03/25 02:23:28;;;;;;;10.48;6.85;;;5.30;99.90;;;;;;12491840;28;20056;-79
2024/03/25 02:29:34;;;;;;;12.20;8.00;;;5.30;99.90;;;;;;12503310;28;20079;-85
2024/03/25 02:35:36;;;;;;;9.57;6.35;;;5.30;99.90;;;;;;12509408;28;20049;-83
2024/03/25 02:41:37;;;;;;;10.43;7.65;;;5.30;99.90;;;;;;12512602;28;20045;-78
2024/03/25 02:47:37;;;;;;;15.55;6.82;;;5.30;99.90;;;;;;12515427;28;20044;-82
2024/03/25 02:53:38;;;;;;;8.32;7.10;;;5.30;99.90;;;;;;12517138;28;20059;-78
2024/03/25 02:59:39;;;;;;;13.13;6.30;;;5.30;99.90;;;;;;12520101;28;20118;-80
2024/03/25 03:05:41;;;;;;;13.07;5.03;;;5.30;99.90;;;;;;12503268;28;20082;-79
2024/03/25 03:11:42;;;;;;;13.70;6.63;;;5.20;99.90;;;;;;12489365;28;20106;-79
2024/03/25 03:17:43;;;;;;;17.05;6.45;;;5.20;99.90;;;;;;12493442;28;20049;-79
2024/03/25 03:23:44;;;;;;;13.38;4.68;;;5.30;99.90;;;;;;12507899;28;20110;-79
2024/03/25 03:29:45;;;;;;;7.97;5.03;;;5.30;99.90;;;;;;12513090;28;20470;-80
2024/03/25 03:35:46;;;;;;;8.10;4.03;;;5.40;99.90;;;;;;12523067;28;20076;-79
2024/03/25 03:41:46;;;;;;;15.88;6.13;;;5.30;99.90;;;;;;12514347;28;20049;-79
2024/03/25 03:47:47;;;;;;;11.50;6.57;;;5.20;99.90;;;;;;12518302;28;20052;-81
2024/03/25 03:53:48;;;;;;;10.35;6.20;;;5.10;99.90;;;;;;12512810;28;20061;-82
2024/03/25 03:59:49;;;;;;;13.02;5.78;;;5.20;99.90;;;;;;12528295;28;20065;-83
2024/03/25 04:05:50;;;;;;;12.38;5.45;;;5.10;99.90;;;;;;12505181;28;20060;-84
2024/03/25 04:11:51;;;;;;;9.52;5.68;;;5.20;99.90;;;;;;12534990;28;20052;-82
2024/03/25 04:17:53;;;;;;;10.38;5.47;;;5.20;99.90;;;;;;12519715;28;20055;-84
2024/03/25 04:23:54;;;;;;;14.73;5.82;;;5.20;99.90;;;;;;12526548;28;20053;-83
2024/03/25 04:29:55;;;;;;;12.15;6.40;;;5.10;99.90;;;;;;12540933;28;20064;-84
2024/03/25 04:35:56;;;;;;;11.40;6.00;;;5.00;99.90;;;;;;12527368;28;20460;-83
2024/03/25 04:41:57;;;;;;;16.75;6.20;;;5.20;99.90;;;;;;12521418;28;20103;-84
2024/03/25 04:47:58;;;;;;;10.30;6.03;;;5.10;99.90;;;;;;12521787;28;20080;-84
2024/03/25 04:53:58;;;;;;;11.50;6.13;;;5.00;99.90;;;;;;12510826;28;20136;-80
2024/03/25 04:59:59;;;;;;;15.40;6.40;;;4.90;99.90;;;;;;12525509;28;20429;-86
2024/03/25 05:06:00;;;;;;;10.05;5.85;;;4.90;99.90;;;;;;12518924;28;20041;-88
2024/03/25 05:12:01;;;;;;;18.00;5.78;;;4.90;99.90;;;;;;12508479;28;20084;-85
2024/03/25 05:18:02;;;;;;;13.52;6.05;;;5.00;99.90;;;;;;12522115;28;20056;-84
2024/03/25 05:24:03;;;;;;;12.02;5.18;;;5.10;99.90;;;;;;12538781;28;20045;-84
2024/03/25 05:30:05;;;;;;;12.15;6.13;;;5.10;99.90;;;;;;12536523;28;20083;-84
2024/03/25 05:36:06;;;;;;;12.50;6.03;;;5.00;99.90;;;;;;12530168;28;20107;-84
2024/03/25 05:42:07;;;;;;;20.27;6.47;;;4.90;99.90;;;;;;12510284;28;20087;-83
2024/03/25 05:48:07;;;;;;;11.05;6.47;;;4.90;99.90;;;;;;12510746;28;20095;-87
2024/03/25 05:54:08;;;;;;;9.15;6.72;;;5.00;99.90;;;;;;12514958;28;20737;-84
2024/03/25 06:00:11;;;;;;;11.65;6.78;;;4.90;99.90;;;;;;12542292;28;20065;-85
2024/03/25 06:06:12;;;;;;;11.27;6.72;;;4.90;99.90;;;;;;12511098;28;20472;-84
2024/03/25 06:12:13;;;;;;;9.32;6.80;;;4.90;99.90;;;;;;12504101;28;20107;-86
2024/03/25 06:18:14;;;;;;;12.57;6.57;;;5.00;99.90;;;;;;12491520;28;20049;-87
2024/03/25 06:24:15;;;;;;;9.88;5.53;;;5.00;99.90;;;;;;12503448;28;20049;-84
2024/03/25 06:36:35;;;;;;;12.45;6.72;;;5.20;99.90;;;;;;12530936;28;20063;-87
2024/03/25 06:42:36;;;;;;;16.52;6.13;;;5.20;99.90;;;;;;12506538;28;20063;-89
2024/03/25 06:48:37;;;;;;;13.40;5.97;;;5.30;99.90;;;;;;12516063;28;20080;-88
2024/03/25 06:54:38;;;;;;;9.70;5.32;;;5.40;99.90;;;;;;12509173;28;20135;-87
2024/03/25 07:00:39;;;;;;;13.75;5.70;;;5.30;99.90;;;;;;12499659;28;20143;-85
2024/03/25 07:06:40;;;;;;;14.88;5.78;;;5.40;99.90;;;;;;12507202;28;20131;-84
2024/03/25 07:12:41;;;;;;;12.63;7.50;;;5.50;99.90;;;;;;12499892;28;20053;-87
2024/03/25 07:18:42;;;;;;;12.32;7.55;;;5.50;99.90;;;;;;12501698;28;20048;-88
2024/03/25 07:24:43;;;;;;;18.15;8.63;;;5.50;99.90;;;;;;12495605;28;20382;-84
2024/03/25 07:30:44;;;;;;;16.65;7.65;;;5.50;99.90;;;;;;12507195;28;20057;-85
2024/03/25 07:36:45;;;;;;;14.15;6.05;;;5.60;99.90;;;;;;12517865;28;20516;-85
2024/03/25 07:42:46;;;;;;;10.75;6.63;;;5.90;99.90;;;;;;12522847;28;20049;-87
2024/03/25 07:48:47;;;;;;;10.30;4.95;;;5.80;99.90;;;;;;12530368;28;20049;-83
2024/03/25 07:54:48;;;;;;;17.67;5.93;;;5.90;99.90;;;;;;12526136;28;20048;-85
2024/03/25 08:00:49;;;;;;;13.20;6.30;;;5.90;99.90;;;;;;12543511;28;20106;-85
2024/03/25 08:06:49;;;;;;;10.45;5.88;;;6.10;99.90;;;;;;12522002;28;20124;-87
2024/03/25 08:12:50;;;;;;;10.85;6.15;;;6.30;99.90;;;;;;12541616;28;20053;-85
2024/03/25 08:18:51;;;;;;;13.65;5.57;;;6.40;99.90;;;;;;12543905;28;20066;-83
2024/03/25 08:24:52;;;;;;;13.05;3.67;;;6.60;99.90;;;;;;12595380;28;20113;-83
2024/03/25 08:30:53;;;;;;;8.85;3.83;;;6.60;99.90;;;;;;12597495;28;20107;-84
2024/03/25 08:36:54;;;;;;;10.82;3.28;;;6.80;99.90;;;;;;12507793;28;20049;-86
2024/03/25 08:42:55;;;;;;;10.20;3.67;;;7.00;99.90;;;;;;12495095;28;20625;-88
2024/03/25 08:48:56;;;;;;;8.93;4.45;;;7.10;99.90;;;;;;12501927;28;20044;-86
2024/03/25 08:54:57;;;;;;;13.73;3.30;;;6.90;99.90;;;;;;12521605;28;20060;-86
2024/03/25 09:00:58;;;;;;;9.45;2.53;;;7.10;99.90;;;;;;12506746;28;20429;-87
2024/03/25 09:06:59;;;;;;;9.07;2.90;;;7.40;99.90;;;;;;12460274;28;20053;-81
2024/03/25 09:13:00;;;;;;;8.70;3.72;;;7.20;99.90;;;;;;12477997;28;20062;-82
2024/03/25 09:19:01;;;;;;;10.35;3.28;;;7.20;99.90;;;;;;12466121;28;20049;-81
2024/03/25 09:25:02;;;;;;;10.73;4.03;;;7.40;99.90;;;;;;12460381;28;20065;-83
2024/03/25 09:31:05;;;;;;;10.05;3.67;;;7.40;99.90;;;;;;12475090;28;20057;-80
2024/03/25 09:37:06;;;;;;;6.07;2.35;;;7.60;99.90;;;;;;12474821;28;20060;-85
2024/03/25 09:43:23;;;;;;;6.05;2.38;;;7.90;99.90;;;;;;12465335;28;20091;-88
2024/03/25 09:49:26;;;;;;;4.65;2.40;;;8.10;99.90;;;;;;12459184;28;20042;-83
2024/03/25 09:55:27;;;;;;;7.95;2.30;;;8.30;99.90;;;;;;12454181;28;20065;-88
2024/03/25 10:01:28;;;;;;;6.30;2.40;;;8.50;99.90;;;;;;12503490;28;20136;-88
2024/03/25 10:07:29;;;;;;;11.10;3.13;;;8.50;99.90;;;;;;12522867;28;20057;-88
2024/03/25 10:13:31;;;;;;;7.00;3.00;;;8.10;99.90;;;;;;12504084;28;20049;-82
2024/03/25 10:19:33;;;;;;;8.90;3.50;;;8.20;99.90;;;;;;12535758;28;20053;-82
2024/03/25 10:25:34;;;;;;;8.50;5.05;;;7.70;99.90;;;;;;12529172;28;20057;-83
2024/03/25 10:31:34;;;;;;;5.55;4.28;;;7.30;99.90;;;;;;12535307;28;20049;-83
2024/03/25 10:37:36;;;;;;;7.55;3.97;;;6.60;99.90;;;;;;12501756;28;20398;-82
2024/03/25 10:43:38;;;;;;;4.05;2.80;;;6.80;99.90;;;;;;12502503;28;20049;-82
2024/03/25 10:49:58;;;;;;;7.88;3.42;;;7.00;99.90;;;;;;12525542;28;20056;-82
2024/03/25 10:56:01;;;;;;;3.65;2.80;;;7.40;99.90;;;;;;12476376;28;20061;-88
2024/03/25 11:02:02;;;;;;;9.63;3.75;;;7.90;99.90;;;;;;12504977;28;20063;-87
2024/03/25 11:08:16;;;;;;;10.52;4.55;;;8.30;99.90;;;;;;12497632;28;20052;-87
2024/03/25 11:14:17;;;;;;;6.57;5.40;;;8.40;99.90;;;;;;12499639;28;20056;-89
2024/03/25 11:20:18;;;;;;;7.78;7.07;;;8.50;99.90;;;;;;12523625;28;20053;-88
2024/03/25 11:26:22;;;;;;;8.85;5.10;;;8.40;99.90;;;;;;12527140;28;20056;-88
2024/03/25 11:32:24;;;;;;;10.38;5.45;;;8.30;99.90;;;;;;12534620;28;20061;-87
2024/03/25 11:38:26;;;;;;;9.38;5.30;;;8.40;99.90;;;;;;12538015;28;20045;-87
2024/03/25 11:44:28;;;;;;;9.43;4.80;;;8.70;99.90;;;;;;12542407;28;20044;-86
2024/03/25 11:50:29;;;;;;;7.43;6.05;;;8.30;99.90;;;;;;12524015;28;20060;-87
2024/03/25 11:56:31;;;;;;;5.25;3.80;;;7.90;99.90;;;;;;12550220;28;20048;-87
2024/03/25 12:02:33;;;;;;;10.30;4.82;;;8.20;99.90;;;;;;12553926;28;20057;-86
2024/03/25 12:08:44;;;;;;;6.85;6.22;;;9.10;99.90;;;;;;12540196;28;20060;-89
2024/03/25 12:14:45;;;;;;;5.88;4.68;;;9.90;99.90;;;;;;12541489;28;20053;-82
2024/03/25 12:20:46;;;;;;;6.55;4.78;;;10.50;99.90;;;;;;12540198;28;20489;-82
2024/03/25 12:26:47;;;;;;;3.70;3.20;;;10.40;99.90;;;;;;12506083;28;20094;-88
2024/03/25 12:32:50;;;;;;;6.43;5.82;;;10.40;99.90;;;;;;12524911;28;20079;-90
2024/03/25 12:38:55;;;;;;;5.43;3.13;;;9.70;99.90;;;;;;12522549;28;20041;-88
2024/03/25 12:44:56;;;;;;;7.22;5.50;;;9.50;99.90;;;;;;12525382;28;20033;-89
2024/03/25 12:50:57;;;;;;;5.38;4.32;;;8.80;99.90;;;;;;12519594;28;20074;-88
2024/03/25 12:56:58;;;;;;;5.82;2.60;;;8.40;99.90;;;;;;12533644;28;20052;-88
2024/03/25 13:03:01;;;;;;;3.65;2.15;;;8.50;99.90;;;;;;12501730;28;20065;-87
2024/03/25 13:09:03;;;;;;;6.63;2.45;;;8.70;99.90;;;;;;12512916;28;20049;-88
2024/03/25 13:15:04;;;;;;;7.88;2.75;;;8.80;99.90;;;;;;12528369;28;20135;-82
2024/03/25 13:21:05;;;;;;;5.47;2.58;;;9.00;99.90;;;;;;12505184;28;20119;-82
2024/03/25 13:27:06;;;;;;;5.03;1.80;;;9.30;99.90;;;;;;12513587;28;20142;-83
2024/03/25 13:33:07;;;;;;;5.10;3.25;;;9.30;99.90;;;;;;12525426;28;20053;-82
2024/03/25 13:39:08;;;;;;;9.20;3.40;;;9.20;99.90;;;;;;12553000;28;20033;-88
2024/03/25 13:45:09;;;;;;;4.93;2.30;;;9.30;99.90;;;;;;12538195;28;20762;-88
2024/03/25 13:51:10;;;;;;;4.35;1.92;;;9.70;99.90;;;;;;12530553;28;20060;-84
2024/03/25 13:57:11;;;;;;;3.92;2.40;;;10.40;99.90;;;;;;12541632;28;20061;-86
2024/03/25 14:03:12;;;;;;;8.82;4.18;;;10.40;99.90;;;;;;12506977;28;20058;-86
2024/03/25 14:09:26;;;;;;;6.32;2.25;;;10.20;99.90;;;;;;12492537;28;20405;-87
2024/03/25 14:15:27;;;;;;;2.45;1.80;;;10.80;99.90;;;;;;12479830;28;20053;-88
2024/03/25 14:21:28;;;;;;;6.32;2.80;;;11.00;99.90;;;;;;12483951;28;20529;-88
2024/03/25 14:27:29;;;;;;;3.65;1.90;;;10.90;99.90;;;;;;12471270;28;20265;-87
2024/03/25 14:33:31;;;;;;;5.25;2.50;;;11.00;99.90;;;;;;12480730;28;20049;-88
2024/03/25 14:39:32;;;;;;;3.55;2.22;;;10.80;99.90;;;;;;12471823;28;20053;-88
2024/03/25 14:45:33;;;;;;;2.95;2.15;;;10.80;99.90;;;;;;12463123;28;20046;-82
2024/03/25 14:51:35;;;;;;;8.07;2.30;;;10.40;99.90;;;;;;12477876;28;20053;-81
2024/03/25 14:57:37;;;;;;;3.65;2.00;;;10.30;99.90;;;;;;12453504;28;20424;-84
2024/03/25 15:03:38;;;;;;;4.30;2.00;;;10.10;99.90;;;;;;12524853;28;20045;-82
2024/03/25 15:09:39;;;;;;;3.95;1.60;;;10.20;99.90;;;;;;12523923;28;20057;-84
2024/03/25 15:15:43;;;;;;;5.05;2.00;;;10.40;99.90;;;;;;12502947;28;20056;-82
2024/03/25 15:21:43;;;;;;;7.53;1.92;;;10.70;99.90;;;;;;12521262;28;20517;-80
2024/03/25 15:27:44;;;;;;;5.65;1.88;;;10.30;99.90;;;;;;12508402;28;20049;-82
2024/03/25 15:33:45;;;;;;;3.28;1.48;;;10.20;99.90;;;;;;12499572;28;20103;-80
2024/03/25 15:39:46;;;;;;;7.70;1.70;;;10.30;99.90;;;;;;12549802;28;20106;-87
2024/03/25 15:45:57;;;;;;;4.63;1.85;;;10.50;99.90;;;;;;12538743;28;20057;-86
2024/03/25 15:51:58;;;;;;;2.83;1.38;;;10.80;1.00;;;;;;12529229;28;20056;-84
2024/03/25 15:58:01;;;;;;;6.18;2.00;;;10.50;56.50;;;;;;12537113;28;20065;-86
2024/03/25 16:04:02;;;;;;;3.20;1.80;;;10.20;1.00;;;;;;12550193;28;20042;-86
2024/03/25 16:10:04;;;;;;;3.63;1.45;;;10.30;99.90;;;;;;12531004;28;20049;-87
2024/03/25 16:16:05;;;;;;;5.75;1.80;;;10.70;99.90;;;;;;12515233;28;20087;-87
2024/03/25 16:22:06;;;;;;;7.05;2.00;;;10.60;99.90;;;;;;12521789;28;20064;-86
2024/03/25 16:28:07;;;;;;;4.28;2.20;;;10.10;1.00;;;;;;12528566;28;20049;-85
2024/03/25 16:34:08;;;;;;;4.53;2.10;;;9.60;99.90;;;;;;12565429;28;20056;-86
2024/03/25 16:40:09;;;;;;;4.65;1.73;;;9.20;1.00;;;;;;12522390;28;20060;-86
2024/03/25 16:46:10;;;;;;;5.30;1.50;;;9.20;1.00;;;;;;12541284;28;20056;-86
2024/03/25 16:52:11;;;;;;;2.60;1.58;;;9.30;99.90;;;;;;12560937;28;20059;-87
2024/03/25 16:58:12;;;;;;;7.25;1.73;;;8.80;99.90;;;;;;12542489;28;20120;-87
2024/03/25 17:04:13;;;;;;;4.10;1.65;;;8.80;99.90;;;;;;12495770;28;20078;-86
2024/03/25 17:10:14;;;;;;;5.13;2.20;;;8.60;1.00;;;;;;12486646;28;20057;-82
2024/03/25 17:16:15;;;;;;;5.50;2.17;;;8.30;1.00;;;;;;12450248;28;20418;-85
2024/03/25 17:22:16;;;;;;;6.07;2.50;;;8.00;11.00;;;;;;12471287;28;20049;-82
2024/03/25 17:28:17;;;;;;;4.95;2.42;;;7.70;52.00;;;;;;12458247;28;20061;-81
2024/03/25 17:34:18;;;;;;;6.22;2.60;;;7.50;99.90;;;;;;12454944;28;20064;-81
2024/03/25 17:40:19;;;;;;;6.35;2.45;;;7.30;99.90;;;;;;12472086;28;20065;-84
2024/03/25 17:46:20;;;;;;;4.97;2.20;;;7.00;99.90;;;;;;12456544;28;20064;-81
2024/03/25 17:52:22;;;;;;;4.97;2.40;;;6.70;99.90;;;;;;12473574;28;20485;-81
2024/03/25 17:58:23;;;;;;;4.47;2.75;;;6.50;99.90;;;;;;12473116;28;20069;-87
2024/03/25 18:04:23;;;;;;;6.13;2.50;;;6.30;99.90;;;;;;12460087;28;20104;-88
2024/03/25 18:10:24;;;;;;;9.48;2.83;;;6.00;99.90;;;;;;12446965;28;20054;-88
2024/03/25 18:16:25;;;;;;;7.03;2.20;;;5.90;99.90;;;;;;12459340;28;20061;-86
2024/03/25 18:22:27;;;;;;;4.85;1.85;;;5.70;99.90;;;;;;12493548;28;20053;-85
2024/03/25 18:28:29;;;;;;;4.47;2.00;;;5.50;99.90;;;;;;12485540;28;20050;-85
2024/03/25 18:34:30;;;;;;;5.20;2.00;;;5.30;99.90;;;;;;12465264;28;20069;-85
2024/03/25 18:40:31;;;;;;;5.28;1.92;;;5.20;99.90;;;;;;12477999;28;20057;-86
2024/03/25 18:46:32;;;;;;;4.85;2.35;;;5.10;99.90;;;;;;12491725;28;20047;-86
2024/03/25 18:52:33;;;;;;;5.30;1.60;;;5.00;99.90;;;;;;12487652;28;20084;-86
2024/03/25 18:58:35;;;;;;;7.15;2.00;;;5.00;99.90;;;;;;12495872;28;20065;-87
2024/03/25 19:04:36;;;;;;;8.90;2.03;;;4.70;99.90;;;;;;12468181;28;20493;-85
2024/03/25 19:10:36;;;;;;;6.10;1.98;;;4.70;99.90;;;;;;12453102;28;20057;-79
2024/03/25 19:16:37;;;;;;;5.43;2.00;;;4.50;99.90;;;;;;12469758;28;20413;-79
2024/03/25 19:22:38;;;;;;;4.20;1.67;;;4.50;99.90;;;;;;12466782;28;20047;-79
2024/03/25 19:28:40;;;;;;;3.78;1.65;;;4.50;99.90;;;;;;12469613;28;20112;-80
2024/03/25 19:34:41;;;;;;;6.30;3.00;;;4.40;99.90;;;;;;12458275;28;20057;-80
2024/03/25 19:40:42;;;;;;;6.85;2.95;;;4.20;99.90;;;;;;12474435;28;20061;-81
2024/03/25 19:46:43;;;;;;;9.27;4.00;;;4.10;99.90;;;;;;12531362;28;20078;-82
2024/03/25 19:52:44;;;;;;;7.22;2.92;;;4.20;99.90;;;;;;12515711;28;20055;-80
2024/03/25 19:58:45;;;;;;;6.35;2.63;;;4.10;99.90;;;;;;12525488;28;20056;-81
2024/03/25 20:04:45;;;;;;;7.18;2.85;;;4.10;99.90;;;;;;12550605;28;20053;-84
2024/03/25 20:10:46;;;;;;;6.57;3.10;;;4.30;99.90;;;;;;12551125;28;20092;-81
2024/03/25 20:16:47;;;;;;;5.32;2.40;;;4.50;99.90;;;;;;12574884;28;20051;-80
2024/03/25 20:22:49;;;;;;;10.27;2.75;;;4.60;99.90;;;;;;12521092;28;20045;-86
2024/03/25 20:28:50;;;;;;;9.02;2.72;;;4.40;99.90;;;;;;12528551;28;20118;-86
2024/03/25 20:34:50;;;;;;;8.70;2.65;;;4.40;99.90;;;;;;12511288;28;20520;-87
2024/03/25 20:40:51;;;;;;;5.43;2.13;;;4.60;99.90;;;;;;12507382;28;20072;-79
2024/03/25 20:46:52;;;;;;;27.58;8.65;;;4.60;99.90;;;;;;12507420;28;20048;-80
2024/03/25 20:52:53;;;;;;;31.83;12.95;;;4.80;99.90;;;;;;12510521;28;20095;-79
2024/03/25 20:58:54;;;;;;;20.65;8.85;;;4.60;99.90;;;;;;12528909;28;20594;-79
2024/03/25 21:04:55;;;;;;;18.30;6.95;;;4.50;99.90;;;;;;12512322;28;20441;-79
2024/03/25 21:10:56;;;;;;;15.85;5.32;;;4.50;99.90;;;;;;12519971;28;20045;-78
2024/03/25 21:16:56;;;;;;;54.25;14.98;;;4.30;99.90;;;;;;12513449;28;20053;-78
2024/03/25 21:22:57;;;;;;;45.03;12.43;;;4.30;99.90;;;;;;12507766;28;20071;-79
2024/03/25 21:28:58;;;;;;;12.73;6.13;;;4.30;99.90;;;;;;12507998;28;20049;-79
2024/03/25 21:34:59;;;;;;;8.07;3.70;;;4.20;99.90;;;;;;12545023;28;20048;-80
2024/03/25 21:41:00;;;;;;;9.52;4.10;;;4.00;99.90;;;;;;12510506;28;20127;-80
2024/03/25 21:47:01;;;;;;;10.07;4.55;;;3.90;99.90;;;;;;12476900;28;20079;-80
2024/03/25 21:53:02;;;;;;;21.65;6.93;;;3.90;99.90;;;;;;12488879;28;20061;-79
2024/03/25 21:59:03;;;;;;;10.10;4.13;;;3.90;99.90;;;;;;12492331;28;20060;-79
2024/03/25 22:05:04;;;;;;;25.83;9.02;;;3.90;99.90;;;;;;12514279;28;20045;-80
2024/03/25 22:11:05;;;;;;;9.90;3.65;;;4.20;99.90;;;;;;12521851;28;20048;-79
2024/03/25 22:17:06;;;;;;;18.75;7.20;;;4.10;99.90;;;;;;12505921;28;20055;-80
2024/03/25 22:23:07;;;;;;;14.75;5.60;;;4.10;99.90;;;;;;12507934;28;20063;-80
2024/03/25 22:29:08;;;;;;;8.73;4.10;;;4.10;99.90;;;;;;12526908;28;20570;-80
2024/03/25 22:35:09;;;;;;;10.27;4.80;;;3.90;99.90;;;;;;12504238;28;20048;-80
2024/03/25 22:41:10;;;;;;;7.88;3.55;;;3.90;99.90;;;;;;12505473;28;20057;-85
2024/03/25 22:47:11;;;;;;;15.73;6.25;;;3.90;99.90;;;;;;12531769;28;20056;-85
2024/03/25 22:53:12;;;;;;;9.80;4.95;;;3.80;99.90;;;;;;12528836;28;20048;-84
2024/03/25 22:59:12;;;;;;;11.75;4.20;;;3.90;99.90;;;;;;12503096;28;20096;-84
2024/03/25 23:05:15;;;;;;;7.07;3.75;;;3.90;99.90;;;;;;12467375;28;20469;-85
2024/03/25 23:11:17;;;;;;;13.70;4.38;;;3.70;99.90;;;;;;12470891;28;20046;-86
2024/03/25 23:17:18;;;;;;;6.15;2.97;;;3.70;99.90;;;;;;12451721;28;20104;-83
2024/03/25 23:23:19;;;;;;;6.35;3.03;;;3.80;99.90;;;;;;12473655;28;20054;-87
2024/03/25 23:29:20;;;;;;;9.40;3.22;;;3.70;99.90;;;;;;12454760;28;20054;-87
2024/03/25 23:35:21;;;;;;;8.38;2.90;;;3.60;99.90;;;;;;12459550;28;20057;-86
2024/03/25 23:41:21;;;;;;;5.28;2.42;;;3.70;99.90;;;;;;12477326;28;20060;-85
2024/03/25 23:47:22;;;;;;;4.05;2.10;;;3.60;99.90;;;;;;12470135;28;20413;-86
2024/03/25 23:53:23;;;;;;;5.65;2.70;;;3.60;99.90;;;;;;12468382;28;20064;-79
2024/03/25 23:59:24;;;;;;;3.85;2.13;;;3.70;99.90;;;;;;12467426;28;20100;-78
